Time;durP1;ratioP1;P1;durP2;ratioP2;P2;SDS_P1;SDS_P2;PMS_P1;PMS_P2;Temp;Humidity;BMP_temperature;BMP_pressure;BME280_temperature;BME280_humidity;BME280_pressure;Samples;Min_cycle;Max_cycle;Signal;HPM_P1;HPM_P2
2023/04/02 00:00:03;;;;;;;3.97;1.40;;;7.90;99.90;;;;;;5054723;28;20041;-65
2023/04/02 00:02:38;;;;;;;5.97;1.60;;;7.90;99.90;;;;;;5055144;28;20045;-65
2023/04/02 00:05:04;;;;;;;1.90;1.10;;;7.90;99.90;;;;;;5054511;28;20041;-65
2023/04/02 00:07:32;;;;;;;2.25;1.20;;;7.90;99.90;;;;;;5054845;28;20071;-64
2023/04/02 00:09:59;;;;;;;2.72;1.30;;;7.80;99.90;;;;;;5054875;28;20076;-66
2023/04/02 00:12:26;;;;;;;6.32;1.60;;;7.80;99.90;;;;;;5053778;28;20049;-66
2023/04/02 00:14:52;;;;;;;3.20;1.30;;;7.80;99.90;;;;;;5054134;28;20049;-64
2023/04/02 00:17:19;;;;;;;4.05;1.67;;;7.70;99.90;;;;;;5054491;28;20072;-65
2023/04/02 00:19:46;;;;;;;4.47;1.60;;;7.70;99.90;;;;;;5053835;28;20554;-65
2023/04/02 00:22:13;;;;;;;4.05;2.00;;;7.70;99.90;;;;;;5052367;28;20124;-65
2023/04/02 00:24:39;;;;;;;3.50;1.50;;;7.80;99.90;;;;;;5054139;28;20033;-64
2023/04/02 00:27:06;;;;;;;3.72;1.30;;;7.80;99.90;;;;;;5051787;28;20045;-64
2023/04/02 00:29:33;;;;;;;2.78;1.23;;;7.70;99.90;;;;;;5040918;28;20043;-64
2023/04/02 00:32:00;;;;;;;1.92;1.10;;;7.70;99.90;;;;;;5039742;28;20049;-65
2023/04/02 00:34:27;;;;;;;2.63;1.17;;;7.70;99.90;;;;;;5047064;28;20072;-63
2023/04/02 00:36:53;;;;;;;2.45;1.10;;;7.70;99.90;;;;;;5052743;28;20041;-65
2023/04/02 00:39:20;;;;;;;2.97;1.08;;;7.70;99.90;;;;;;5054423;28;20087;-64
2023/04/02 00:41:47;;;;;;;3.95;1.35;;;7.60;99.90;;;;;;5045245;28;20374;-64
2023/04/02 00:44:14;;;;;;;2.40;1.15;;;7.60;99.90;;;;;;5048573;28;20087;-65
2023/04/02 00:46:50;;;;;;;5.00;1.30;;;7.50;99.90;;;;;;5053889;28;20481;-65
2023/04/02 00:49:16;;;;;;;2.42;1.08;;;7.50;99.90;;;;;;5053739;28;20125;-65
2023/04/02 00:51:43;;;;;;;4.72;1.13;;;7.50;99.90;;;;;;5053809;28;20515;-65
2023/04/02 00:54:14;;;;;;;3.05;1.08;;;7.60;99.90;;;;;;5054139;28;20068;-64
2023/04/02 00:56:41;;;;;;;3.20;1.50;;;7.60;99.90;;;;;;5052617;28;20059;-65
2023/04/02 00:59:08;;;;;;;3.00;1.10;;;7.60;99.90;;;;;;5053625;28;20112;-65
2023/04/02 01:01:35;;;;;;;2.83;1.40;;;7.50;99.90;;;;;;5053783;28;20049;-64
2023/04/02 01:04:02;;;;;;;2.17;1.15;;;7.50;99.90;;;;;;5052173;28;20037;-65
2023/04/02 01:06:29;;;;;;;1.73;1.05;;;7.60;99.90;;;;;;5052437;28;20392;-65
2023/04/02 01:08:56;;;;;;;3.83;1.30;;;7.60;99.90;;;;;;5053983;28;20048;-63
2023/04/02 01:11:23;;;;;;;4.82;1.55;;;7.70;99.90;;;;;;5053385;28;20052;-64
2023/04/02 01:13:50;;;;;;;2.97;1.33;;;7.70;99.90;;;;;;5053732;28;20076;-66
2023/04/02 01:16:17;;;;;;;2.83;1.42;;;7.70;99.90;;;;;;5052715;28;20499;-64
2023/04/02 01:18:49;;;;;;;2.72;1.48;;;7.70;99.90;;;;;;5053923;28;20419;-64
2023/04/02 01:21:16;;;;;;;2.85;1.50;;;7.70;99.90;;;;;;5053834;28;20045;-65
2023/04/02 01:23:43;;;;;;;2.67;1.33;;;7.70;99.90;;;;;;5052342;28;20074;-64
2023/04/02 01:26:10;;;;;;;4.57;1.60;;;7.70;99.90;;;;;;5053867;28;20120;-66
2023/04/02 01:28:37;;;;;;;3.42;1.88;;;7.70;99.90;;;;;;5052504;28;20045;-65
2023/04/02 01:31:03;;;;;;;3.88;2.03;;;7.70;99.90;;;;;;5051890;28;20053;-65
2023/04/02 01:33:30;;;;;;;3.42;2.25;;;7.60;99.90;;;;;;5035166;28;20037;-64
2023/04/02 01:35:57;;;;;;;4.63;2.90;;;7.60;99.90;;;;;;5052492;28;20037;-65
2023/04/02 01:38:24;;;;;;;4.30;2.22;;;7.50;99.90;;;;;;5035355;28;20050;-64
2023/04/02 01:40:51;;;;;;;3.92;2.28;;;7.50;99.90;;;;;;5052155;28;20052;-64
2023/04/02 01:43:18;;;;;;;4.47;2.50;;;7.50;99.90;;;;;;5053407;28;20540;-65
2023/04/02 01:45:44;;;;;;;4.80;2.78;;;7.60;99.90;;;;;;5053093;28;20492;-65
2023/04/02 01:48:11;;;;;;;6.57;2.83;;;7.60;99.90;;;;;;5052289;28;20102;-64
2023/04/02 01:50:38;;;;;;;6.03;2.83;;;7.60;99.90;;;;;;5051737;28;20392;-64
2023/04/02 01:53:05;;;;;;;4.85;2.80;;;7.60;99.90;;;;;;5052038;28;20476;-65
2023/04/02 01:55:33;;;;;;;6.28;2.90;;;7.60;99.90;;;;;;5052204;28;20156;-65
2023/04/02 01:58:01;;;;;;;7.30;3.17;;;7.60;99.90;;;;;;5052125;28;20045;-64
2023/04/02 02:00:29;;;;;;;6.07;3.15;;;7.60;99.90;;;;;;5051983;28;20064;-64
2023/04/02 02:02:56;;;;;;;5.88;3.65;;;7.60;99.90;;;;;;5052080;28;20045;-65
2023/04/02 02:05:23;;;;;;;6.30;3.75;;;7.60;99.90;;;;;;5052203;28;20480;-64
2023/04/02 02:07:53;;;;;;;5.72;3.17;;;7.60;99.90;;;;;;5051930;28;20095;-64
2023/04/02 02:10:20;;;;;;;7.15;3.58;;;7.60;99.90;;;;;;5051994;28;20049;-64
2023/04/02 02:12:46;;;;;;;6.05;3.22;;;7.60;99.90;;;;;;5053101;28;20087;-64
2023/04/02 02:15:13;;;;;;;5.05;2.88;;;7.70;99.90;;;;;;5052773;28;20057;-64
2023/04/02 02:17:40;;;;;;;8.35;3.47;;;7.70;99.90;;;;;;5052970;28;20048;-65
2023/04/02 02:20:11;;;;;;;6.55;3.30;;;7.70;99.90;;;;;;5051622;28;20045;-64
2023/04/02 02:22:38;;;;;;;7.68;3.50;;;7.70;99.90;;;;;;5053154;28;20037;-64
2023/04/02 02:25:05;;;;;;;6.00;3.28;;;7.60;99.90;;;;;;5052624;28;20057;-63
2023/04/02 02:27:32;;;;;;;7.75;3.20;;;7.60;99.90;;;;;;5052968;28;20385;-65
2023/04/02 02:30:06;;;;;;;8.30;3.78;;;7.60;99.90;;;;;;5036379;28;20484;-64
2023/04/02 02:32:33;;;;;;;8.70;3.67;;;7.60;99.90;;;;;;5051744;28;20407;-64
2023/04/02 02:35:00;;;;;;;7.25;3.70;;;7.50;99.90;;;;;;5051910;28;20532;-63
2023/04/02 02:37:27;;;;;;;7.70;3.70;;;7.50;99.90;;;;;;5052585;28;20044;-65
2023/04/02 02:39:55;;;;;;;7.63;3.90;;;7.50;99.90;;;;;;5052691;28;20040;-64
2023/04/02 02:42:23;;;;;;;8.88;3.60;;;7.50;99.90;;;;;;5051456;28;20041;-64
2023/04/02 02:44:51;;;;;;;5.93;3.40;;;7.60;99.90;;;;;;5053240;28;20099;-63
2023/04/02 02:47:18;;;;;;;8.80;3.60;;;7.60;99.90;;;;;;5055297;28;20112;-64
2023/04/02 02:49:45;;;;;;;7.07;3.78;;;7.60;99.90;;;;;;5054671;28;20038;-65
2023/04/02 02:52:12;;;;;;;7.80;3.63;;;7.60;99.90;;;;;;5054589;28;20045;-65
2023/04/02 02:54:46;;;;;;;8.07;3.75;;;7.60;99.90;;;;;;5054676;28;20049;-64
2023/04/02 02:57:13;;;;;;;8.07;4.10;;;7.60;99.90;;;;;;5054916;28;20098;-64
2023/04/02 02:59:40;;;;;;;5.63;3.40;;;7.60;99.90;;;;;;5054651;28;20508;-65
2023/04/02 03:02:07;;;;;;;8.13;4.00;;;7.60;99.90;;;;;;5054386;28;20049;-64
2023/04/02 03:04:35;;;;;;;11.00;4.07;;;7.50;99.90;;;;;;5054566;28;20037;-65
2023/04/02 03:07:07;;;;;;;10.25;4.78;;;7.50;99.90;;;;;;5054815;28;20546;-64
2023/04/02 03:09:35;;;;;;;11.15;4.40;;;7.50;99.90;;;;;;5054553;28;20064;-65
2023/04/02 03:12:02;;;;;;;12.02;4.53;;;7.50;99.90;;;;;;5054835;28;20388;-64
2023/04/02 03:14:29;;;;;;;11.40;5.07;;;7.50;99.90;;;;;;5054155;28;20081;-64
2023/04/02 03:16:56;;;;;;;9.30;4.55;;;7.50;99.90;;;;;;5054782;28;20037;-66
2023/04/02 03:19:24;;;;;;;9.73;4.72;;;7.50;99.90;;;;;;5054141;28;20045;-65
2023/04/02 03:21:52;;;;;;;10.38;4.47;;;7.50;99.90;;;;;;5055931;28;20036;-64
2023/04/02 03:24:19;;;;;;;11.98;4.35;;;7.50;99.90;;;;;;5054534;28;20224;-65
2023/04/02 03:26:47;;;;;;;10.10;4.15;;;7.50;99.90;;;;;;5055494;28;20120;-65
2023/04/02 03:29:14;;;;;;;11.63;4.20;;;7.50;99.90;;;;;;5054620;28;20048;-65
2023/04/02 03:31:41;;;;;;;9.15;3.85;;;7.50;99.90;;;;;;5055409;28;20029;-64
2023/04/02 03:34:08;;;;;;;9.48;4.05;;;7.50;99.90;;;;;;5055951;28;20047;-66
2023/04/02 03:36:37;;;;;;;7.35;3.80;;;7.50;99.90;;;;;;5055686;28;20044;-63
2023/04/02 03:39:04;;;;;;;8.60;3.97;;;7.50;99.90;;;;;;5053984;28;20045;-62
2023/04/02 03:41:31;;;;;;;13.13;4.32;;;7.50;99.90;;;;;;5054321;28;20087;-62
2023/04/02 03:43:58;;;;;;;9.55;4.13;;;7.50;99.90;;;;;;5037267;28;20048;-62
2023/04/02 03:46:25;;;;;;;10.18;4.15;;;7.50;99.90;;;;;;5037365;28;20525;-64
2023/04/02 03:48:54;;;;;;;9.25;3.55;;;7.50;99.90;;;;;;5053904;28;20504;-66
2023/04/02 03:51:21;;;;;;;12.50;4.05;;;7.50;99.90;;;;;;5055332;28;20155;-63
2023/04/02 03:53:48;;;;;;;10.13;3.72;;;7.50;99.90;;;;;;5053601;28;20044;-63
2023/04/02 03:56:15;;;;;;;10.80;4.10;;;7.60;99.90;;;;;;5053156;28;20087;-63
2023/04/02 03:58:42;;;;;;;14.25;4.38;;;7.60;99.90;;;;;;5053476;28;20095;-65
2023/04/02 04:01:11;;;;;;;9.73;3.83;;;7.50;99.90;;;;;;5053753;28;20518;-64
2023/04/02 04:03:38;;;;;;;10.05;3.58;;;7.50;99.90;;;;;;5053636;28;20037;-64
2023/04/02 04:06:05;;;;;;;9.13;3.85;;;7.40;99.90;;;;;;5053791;28;20365;-64
2023/04/02 04:08:32;;;;;;;12.15;4.20;;;7.40;99.90;;;;;;5055046;28;20082;-64
2023/04/02 04:10:58;;;;;;;12.32;3.70;;;7.30;99.90;;;;;;5055097;28;20412;-64
2023/04/02 04:13:25;;;;;;;12.82;4.40;;;7.30;99.90;;;;;;5053034;28;20045;-64
2023/04/02 04:15:52;;;;;;;13.18;4.68;;;7.30;99.90;;;;;;5053192;28;20077;-65
2023/04/02 04:18:20;;;;;;;15.20;4.60;;;7.30;99.90;;;;;;5054753;28;20512;-63
2023/04/02 04:20:48;;;;;;;17.63;5.35;;;7.40;99.90;;;;;;5052931;28;20048;-65
2023/04/02 04:23:17;;;;;;;13.30;4.75;;;7.40;99.90;;;;;;5053050;28;20526;-64
2023/04/02 04:25:44;;;;;;;14.27;4.63;;;7.40;99.90;;;;;;5052878;28;20041;-64
2023/04/02 04:28:15;;;;;;;11.45;4.30;;;7.40;99.90;;;;;;5052890;28;20048;-64
2023/04/02 04:30:43;;;;;;;9.25;3.70;;;7.30;99.90;;;;;;5036886;28;20049;-64
2023/04/02 04:33:10;;;;;;;18.30;5.07;;;7.30;99.90;;;;;;5052873;28;20037;-64
2023/04/02 04:35:37;;;;;;;12.77;4.68;;;7.20;99.90;;;;;;5053343;28;20048;-64
2023/04/02 04:38:10;;;;;;;11.38;4.20;;;7.10;99.90;;;;;;5037316;28;20091;-65
2023/04/02 04:40:39;;;;;;;11.73;3.95;;;7.10;99.90;;;;;;5052763;28;20041;-64
2023/04/02 04:43:06;;;;;;;11.60;3.63;;;7.10;99.90;;;;;;5052520;28;20404;-64
2023/04/02 04:45:33;;;;;;;11.95;4.10;;;7.10;99.90;;;;;;5052989;28;20052;-64
2023/04/02 04:48:00;;;;;;;11.65;4.57;;;7.10;99.90;;;;;;5052976;28;20086;-64
2023/04/02 04:50:28;;;;;;;14.45;3.88;;;7.10;99.90;;;;;;5052378;28;20053;-64
2023/04/02 04:52:55;;;;;;;9.90;3.67;;;7.10;99.90;;;;;;5053931;28;20496;-65
2023/04/02 04:55:22;;;;;;;13.63;3.67;;;7.20;99.90;;;;;;5052727;28;20071;-64
2023/04/02 04:57:49;;;;;;;12.10;3.60;;;7.10;99.90;;;;;;5052797;28;20132;-64
2023/04/02 05:00:16;;;;;;;11.32;3.35;;;7.20;99.90;;;;;;5054077;28;20051;-64
2023/04/02 05:02:43;;;;;;;8.98;3.63;;;7.10;99.90;;;;;;5052333;28;20514;-63
2023/04/02 05:05:11;;;;;;;15.10;3.05;;;7.10;99.90;;;;;;5053400;28;20048;-64
2023/04/02 05:07:38;;;;;;;8.32;2.95;;;7.10;99.90;;;;;;5051567;28;20048;-64
2023/04/02 05:10:06;;;;;;;8.68;2.88;;;7.10;99.90;;;;;;5052525;28;20049;-64
2023/04/02 05:12:36;;;;;;;12.48;3.95;;;7.10;99.90;;;;;;5052438;28;20037;-65
2023/04/02 05:15:07;;;;;;;8.27;2.92;;;7.10;99.90;;;;;;5052118;28;20078;-63
2023/04/02 05:17:35;;;;;;;7.53;2.72;;;7.10;99.90;;;;;;5051966;28;20065;-64
2023/04/02 05:20:05;;;;;;;12.68;3.38;;;7.20;99.90;;;;;;5051900;28;20124;-65
2023/04/02 05:22:32;;;;;;;11.73;3.20;;;7.20;99.90;;;;;;5052126;28;20065;-63
2023/04/02 05:25:01;;;;;;;14.55;3.92;;;7.20;99.90;;;;;;5051956;28;20048;-64
2023/04/02 05:27:28;;;;;;;12.80;3.45;;;7.20;99.90;;;;;;5052263;28;20045;-64
2023/04/02 05:29:55;;;;;;;13.52;3.88;;;7.20;99.90;;;;;;5052475;28;20124;-65
2023/04/02 05:32:23;;;;;;;14.23;3.53;;;7.20;99.90;;;;;;5052837;28;20099;-64
2023/04/02 05:34:50;;;;;;;15.07;3.72;;;7.20;99.90;;;;;;5052689;28;20067;-64
2023/04/02 05:37:17;;;;;;;17.73;5.03;;;7.10;99.90;;;;;;5052191;28;20064;-63
2023/04/02 05:39:44;;;;;;;12.23;3.60;;;7.10;99.90;;;;;;5051890;28;20384;-64
2023/04/02 05:42:13;;;;;;;12.95;3.65;;;7.10;99.90;;;;;;5051787;28;20049;-64
2023/04/02 05:44:53;;;;;;;9.32;2.95;;;7.10;99.90;;;;;;5052338;28;20045;-63
2023/04/02 05:47:21;;;;;;;9.75;3.05;;;7.10;99.90;;;;;;5051930;28;20071;-64
2023/04/02 05:49:48;;;;;;;11.93;3.25;;;7.10;99.90;;;;;;5052006;28;20383;-64
2023/04/02 05:52:16;;;;;;;9.68;2.72;;;7.00;99.90;;;;;;5053505;28;20532;-64
2023/04/02 05:54:44;;;;;;;12.40;3.80;;;7.10;99.90;;;;;;5051877;28;20119;-64
2023/04/02 05:57:12;;;;;;;10.25;2.80;;;7.00;99.90;;;;;;5052351;28;20132;-65
2023/04/02 05:59:40;;;;;;;12.85;3.28;;;7.00;99.90;;;;;;5052445;28;20037;-65
2023/04/02 06:02:07;;;;;;;9.60;2.72;;;7.10;99.90;;;;;;5052879;28;20041;-63
2023/04/02 06:04:37;;;;;;;11.70;2.95;;;7.10;99.90;;;;;;5051779;28;20037;-64
2023/04/02 06:07:04;;;;;;;7.88;1.83;;;7.10;99.90;;;;;;5052124;28;20141;-64
2023/04/02 06:09:31;;;;;;;7.05;1.85;;;7.00;99.90;;;;;;5052238;28;20435;-63
2023/04/02 06:11:58;;;;;;;8.57;2.00;;;7.00;99.90;;;;;;5052335;28;20053;-64
2023/04/02 06:14:26;;;;;;;7.05;1.98;;;7.00;99.90;;;;;;5051477;28;20049;-64
2023/04/02 06:16:53;;;;;;;9.70;2.03;;;6.90;99.90;;;;;;5051868;28;20052;-63
2023/04/02 06:19:20;;;;;;;7.90;2.42;;;7.00;99.90;;;;;;5054971;28;20041;-63
2023/04/02 06:21:48;;;;;;;8.15;2.15;;;7.00;99.90;;;;;;5056990;28;20070;-63
2023/04/02 06:24:18;;;;;;;9.45;2.30;;;6.90;99.90;;;;;;5055328;28;20033;-64
2023/04/02 06:26:45;;;;;;;13.60;2.78;;;6.90;99.90;;;;;;5055185;28;20128;-64
2023/04/02 06:29:15;;;;;;;8.95;2.80;;;6.90;99.90;;;;;;5055731;28;20037;-63
2023/04/02 06:31:41;;;;;;;11.88;2.45;;;6.90;99.90;;;;;;5056444;28;20123;-64
2023/04/02 06:34:10;;;;;;;9.63;2.42;;;6.90;99.90;;;;;;5055045;28;20052;-63
2023/04/02 06:36:38;;;;;;;8.95;2.45;;;6.80;99.90;;;;;;5057080;28;20033;-62
2023/04/02 06:39:07;;;;;;;12.75;2.63;;;6.80;99.90;;;;;;5055756;28;20051;-64
2023/04/02 06:41:35;;;;;;;8.82;2.58;;;6.70;99.90;;;;;;5054957;28;20037;-63
2023/04/02 06:44:21;;;;;;;9.63;2.63;;;6.80;99.90;;;;;;5056684;28;20392;-63
2023/04/02 06:47:04;;;;;;;11.40;3.00;;;6.80;99.90;;;;;;5055142;28;20037;-63
2023/04/02 06:49:32;;;;;;;9.93;2.40;;;6.80;99.90;;;;;;5055369;28;20041;-63
2023/04/02 06:52:01;;;;;;;16.15;2.70;;;6.90;99.90;;;;;;5054866;28;20045;-64
2023/04/02 06:54:29;;;;;;;14.20;2.63;;;6.90;99.90;;;;;;5055178;28;20057;-63
2023/04/02 06:57:00;;;;;;;11.07;2.28;;;6.90;99.90;;;;;;5055342;28;20045;-64
2023/04/02 06:59:36;;;;;;;13.40;2.70;;;6.90;99.90;;;;;;5055355;28;20540;-64
2023/04/02 07:02:07;;;;;;;12.02;2.70;;;6.90;99.90;;;;;;5054558;28;20068;-64
2023/04/02 07:04:34;;;;;;;12.40;3.10;;;6.90;99.90;;;;;;5056548;28;20455;-63
2023/04/02 07:07:01;;;;;;;13.70;2.85;;;6.90;99.90;;;;;;5054672;28;20112;-64
2023/04/02 07:09:32;;;;;;;13.02;3.03;;;6.90;99.90;;;;;;5056380;28;20047;-64
2023/04/02 07:12:02;;;;;;;7.93;2.50;;;6.90;99.90;;;;;;5054632;28;20052;-63
2023/04/02 07:14:29;;;;;;;9.15;2.20;;;6.80;99.90;;;;;;5054280;28;20057;-64
2023/04/02 07:16:56;;;;;;;14.45;2.28;;;6.80;99.90;;;;;;5054281;28;20048;-63
2023/04/02 07:19:22;;;;;;;7.50;2.33;;;6.80;99.90;;;;;;5054606;28;20099;-62
2023/04/02 07:21:54;;;;;;;8.98;2.38;;;6.80;99.90;;;;;;5054299;28;20045;-64
2023/04/02 07:24:22;;;;;;;7.13;2.40;;;6.80;99.90;;;;;;5054902;28;20110;-64
2023/04/02 07:26:49;;;;;;;8.27;2.65;;;6.90;99.90;;;;;;5055450;28;20045;-63
2023/04/02 07:29:16;;;;;;;6.30;2.35;;;6.90;99.90;;;;;;5055195;28;20358;-63
2023/04/02 07:31:43;;;;;;;8.55;2.40;;;6.80;99.90;;;;;;5055484;28;20075;-64
2023/04/02 07:34:09;;;;;;;10.35;2.28;;;6.80;99.90;;;;;;5055801;28;20559;-63
2023/04/02 07:36:36;;;;;;;9.15;2.20;;;6.80;99.90;;;;;;5055751;28;20073;-63
2023/04/02 07:39:03;;;;;;;11.57;2.85;;;6.80;99.90;;;;;;5055570;28;20051;-64
2023/04/02 07:41:30;;;;;;;7.80;2.30;;;6.80;99.90;;;;;;5055683;28;20037;-63
2023/04/02 07:43:57;;;;;;;8.45;2.80;;;6.80;99.90;;;;;;5055279;28;20391;-64
2023/04/02 07:46:24;;;;;;;10.93;2.28;;;6.80;99.90;;;;;;5054965;28;20045;-63
2023/04/02 07:48:51;;;;;;;9.07;2.60;;;6.70;99.90;;;;;;5055013;28;20037;-64
2023/04/02 07:51:18;;;;;;;11.40;3.00;;;6.80;99.90;;;;;;5055544;28;20044;-63
2023/04/02 07:53:48;;;;;;;8.60;2.38;;;6.80;99.90;;;;;;5055567;28;20091;-63
2023/04/02 07:56:16;;;;;;;10.15;2.47;;;6.90;99.90;;;;;;5055172;28;20084;-64
2023/04/02 07:58:43;;;;;;;8.75;2.53;;;6.90;99.90;;;;;;5054015;28;20080;-63
2023/04/02 08:01:10;;;;;;;14.50;2.63;;;6.90;99.90;;;;;;5055172;28;20361;-63
2023/04/02 08:03:37;;;;;;;7.82;2.20;;;6.90;99.90;;;;;;5053563;28;20064;-63
2023/04/02 08:06:05;;;;;;;7.63;2.25;;;6.90;99.90;;;;;;5054922;28;20048;-64
2023/04/02 08:08:32;;;;;;;7.63;2.30;;;6.90;99.90;;;;;;5054873;28;20116;-63
2023/04/02 08:10:58;;;;;;;7.40;2.25;;;6.90;99.90;;;;;;5054968;28;20109;-63
2023/04/02 08:13:25;;;;;;;8.40;2.42;;;6.90;99.90;;;;;;5054499;28;20041;-64
2023/04/02 08:15:52;;;;;;;7.82;2.90;;;6.80;99.90;;;;;;5054929;28;20051;-64
2023/04/02 08:18:19;;;;;;;8.60;2.15;;;6.90;99.90;;;;;;5054954;28;20415;-64
2023/04/02 08:20:46;;;;;;;7.85;2.30;;;6.90;99.90;;;;;;5053706;28;20049;-62
2023/04/02 08:23:14;;;;;;;10.38;2.65;;;6.90;99.90;;;;;;5054867;28;20036;-63
2023/04/02 08:25:41;;;;;;;5.82;2.30;;;6.90;99.90;;;;;;5054623;28;20041;-63
2023/04/02 08:28:07;;;;;;;7.63;2.22;;;6.90;99.90;;;;;;5054247;28;20492;-63
2023/04/02 08:30:34;;;;;;;7.20;1.95;;;6.90;99.90;;;;;;5053477;28;20048;-64
2023/04/02 08:33:01;;;;;;;8.77;2.38;;;7.00;99.90;;;;;;5054541;28;20043;-63
2023/04/02 08:35:28;;;;;;;11.20;2.80;;;7.00;99.90;;;;;;5053650;28;20095;-63
2023/04/02 08:37:55;;;;;;;8.98;2.55;;;7.10;99.90;;;;;;5054797;28;20060;-62
2023/04/02 08:40:22;;;;;;;9.15;2.45;;;7.20;99.90;;;;;;5049811;28;20059;-64
2023/04/02 08:42:48;;;;;;;13.25;2.88;;;7.20;99.90;;;;;;5042065;28;20037;-63
2023/04/02 08:45:15;;;;;;;8.88;2.45;;;7.30;99.90;;;;;;5043522;28;20083;-63
2023/04/02 08:47:52;;;;;;;;;;;7.30;99.90;;;;;;5043743;28;20498;-64
2023/04/02 08:50:19;;;;;;;8.30;2.10;;;7.40;99.90;;;;;;5040105;28;20307;-64
2023/04/02 08:52:46;;;;;;;9.90;2.30;;;7.40;99.90;;;;;;5047654;28;20399;-64
2023/04/02 08:55:13;;;;;;;8.18;2.78;;;7.40;99.90;;;;;;5036042;28;20083;-63
2023/04/02 08:57:40;;;;;;;8.93;2.95;;;7.40;99.90;;;;;;5054321;28;20043;-63
2023/04/02 09:00:10;;;;;;;9.27;2.33;;;7.40;99.90;;;;;;5054123;28;20041;-64
2023/04/02 09:02:36;;;;;;;9.18;2.45;;;7.40;99.90;;;;;;5036054;28;20370;-64
2023/04/02 09:05:03;;;;;;;9.82;2.60;;;7.50;99.90;;;;;;5034376;28;20037;-63
2023/04/02 09:07:32;;;;;;;8.10;2.22;;;7.60;99.90;;;;;;5033831;28;20041;-64
2023/04/02 09:09:59;;;;;;;10.57;2.47;;;7.60;99.90;;;;;;5034366;28;20072;-64
2023/04/02 09:12:26;;;;;;;11.10;2.92;;;7.60;99.90;;;;;;5033833;28;20124;-64
2023/04/02 09:14:52;;;;;;;11.93;2.90;;;7.70;99.90;;;;;;5039265;28;20128;-64
2023/04/02 09:17:19;;;;;;;9.10;2.30;;;7.70;99.90;;;;;;5053497;28;20083;-65
2023/04/02 09:19:46;;;;;;;11.45;2.55;;;7.80;99.90;;;;;;5053874;28;20041;-64
2023/04/02 09:22:13;;;;;;;9.52;2.35;;;7.80;99.90;;;;;;5053428;28;20427;-64
2023/04/02 09:24:40;;;;;;;13.48;2.50;;;7.80;99.90;;;;;;5053785;28;20045;-63
2023/04/02 09:27:07;;;;;;;9.95;2.20;;;7.80;99.90;;;;;;5053550;28;20033;-64
2023/04/02 09:29:34;;;;;;;11.50;2.78;;;7.80;99.90;;;;;;5052245;28;20076;-62
2023/04/02 09:32:01;;;;;;;10.30;2.65;;;7.90;99.90;;;;;;5053546;28;20067;-64
2023/04/02 09:34:28;;;;;;;13.20;2.58;;;7.90;99.90;;;;;;5053266;28;20077;-64
2023/04/02 09:36:55;;;;;;;10.90;2.65;;;8.00;99.90;;;;;;5052461;28;20099;-64
2023/04/02 09:39:22;;;;;;;10.77;2.40;;;8.20;99.90;;;;;;5053827;28;20079;-63
2023/04/02 09:41:51;;;;;;;9.93;2.70;;;8.30;99.90;;;;;;5053733;28;20050;-63
2023/04/02 09:44:30;;;;;;;16.50;3.00;;;8.40;99.90;;;;;;5052958;28;20041;-65
2023/04/02 09:47:02;;;;;;;11.15;3.03;;;8.50;99.90;;;;;;5053064;28;20076;-64
2023/04/02 09:49:29;;;;;;;9.82;2.28;;;8.60;99.90;;;;;;5053866;28;20049;-64
2023/04/02 09:51:56;;;;;;;11.82;2.63;;;8.60;99.90;;;;;;5053984;28;20041;-63
2023/04/02 09:54:25;;;;;;;10.23;2.72;;;8.80;99.90;;;;;;5056366;28;20044;-62
2023/04/02 09:56:52;;;;;;;10.27;2.45;;;8.80;99.90;;;;;;5057624;28;20392;-62
2023/04/02 09:59:22;;;;;;;13.75;2.47;;;8.70;99.90;;;;;;5056347;28;20116;-62
2023/04/02 10:01:48;;;;;;;14.00;2.40;;;8.70;99.90;;;;;;5055930;28;20080;-63
2023/04/02 10:04:15;;;;;;;12.20;2.40;;;8.80;99.90;;;;;;5055827;28;20044;-64
2023/04/02 10:06:42;;;;;;;13.77;2.70;;;8.80;99.90;;;;;;5055933;28;20037;-64
2023/04/02 10:09:09;;;;;;;8.20;2.20;;;8.80;99.90;;;;;;5055965;28;20037;-63
2023/04/02 10:11:35;;;;;;;12.10;2.58;;;8.90;99.90;;;;;;5055692;28;20067;-63
2023/04/02 10:14:12;;;;;;;9.95;2.35;;;8.90;99.90;;;;;;5056369;28;20049;-63
2023/04/02 10:16:39;;;;;;;10.43;2.33;;;9.00;99.90;;;;;;5056869;28;20040;-64
2023/04/02 10:19:06;;;;;;;8.98;2.05;;;9.10;99.90;;;;;;5056865;28;20051;-62
2023/04/02 10:21:33;;;;;;;9.50;2.35;;;9.00;99.90;;;;;;5057058;28;20069;-64
2023/04/02 10:24:01;;;;;;;10.13;2.80;;;9.00;99.90;;;;;;5057097;28;20052;-63
2023/04/02 10:26:28;;;;;;;11.10;2.22;;;9.20;99.90;;;;;;5057151;28;20106;-63
2023/04/02 10:28:55;;;;;;;14.15;2.35;;;9.20;99.90;;;;;;5056761;28;20082;-63
2023/04/02 10:31:24;;;;;;;10.93;2.50;;;9.20;99.90;;;;;;5055646;28;20124;-64
2023/04/02 10:33:51;;;;;;;8.75;2.55;;;9.20;99.90;;;;;;5055779;28;20044;-62
2023/04/02 10:36:18;;;;;;;9.38;2.92;;;9.20;99.90;;;;;;5057064;28;20045;-64
2023/04/02 10:38:45;;;;;;;10.73;2.85;;;9.20;99.90;;;;;;5057075;28;20044;-62
2023/04/02 10:41:11;;;;;;;8.43;2.60;;;9.30;99.90;;;;;;5056334;28;20095;-63
2023/04/02 10:43:38;;;;;;;11.20;2.30;;;9.30;99.90;;;;;;5056431;28;20037;-63
2023/04/02 10:46:05;;;;;;;10.25;2.42;;;9.20;99.90;;;;;;5056891;28;20061;-64
2023/04/02 10:48:32;;;;;;;12.52;2.85;;;9.30;99.90;;;;;;5056787;28;20102;-63
2023/04/02 10:50:59;;;;;;;9.27;2.78;;;9.40;99.90;;;;;;5056874;28;20124;-64
2023/04/02 10:53:26;;;;;;;9.75;2.30;;;9.50;99.90;;;;;;5054920;28;20068;-64
2023/04/02 10:55:52;;;;;;;10.23;2.90;;;9.40;99.90;;;;;;5056230;28;20468;-63
2023/04/02 10:58:19;;;;;;;7.78;2.22;;;9.40;99.90;;;;;;5056483;28;20358;-63
2023/04/02 11:00:46;;;;;;;8.80;2.60;;;9.50;99.90;;;;;;5056528;28;20076;-63
2023/04/02 11:03:12;;;;;;;7.93;2.38;;;9.50;99.90;;;;;;5055878;28;20480;-64
2023/04/02 11:05:42;;;;;;;10.00;2.70;;;9.50;99.90;;;;;;5055575;28;20371;-62
2023/04/02 11:08:09;;;;;;;14.63;2.97;;;9.60;99.90;;;;;;5056298;28;20076;-63
2023/04/02 11:10:36;;;;;;;11.07;2.70;;;9.60;99.90;;;;;;5038326;28;20041;-63
2023/04/02 11:13:03;;;;;;;9.63;2.40;;;9.80;99.90;;;;;;5055932;28;20048;-63
2023/04/02 11:15:30;;;;;;;9.07;2.00;;;9.80;99.90;;;;;;5055532;28;20099;-63
2023/04/02 11:17:56;;;;;;;9.20;2.30;;;9.90;99.90;;;;;;5055752;28;20044;-62
2023/04/02 11:20:23;;;;;;;12.15;2.60;;;10.00;99.90;;;;;;5056264;28;20132;-63
2023/04/02 11:22:50;;;;;;;11.88;2.70;;;10.00;99.90;;;;;;5054080;28;20041;-63
2023/04/02 11:25:17;;;;;;;9.15;2.45;;;10.10;99.90;;;;;;5055934;28;20088;-63
2023/04/02 11:27:44;;;;;;;14.45;2.58;;;10.10;99.90;;;;;;5055629;28;20116;-63
2023/04/02 11:30:12;;;;;;;8.30;2.05;;;10.10;99.90;;;;;;5055487;28;20396;-62
2023/04/02 11:32:41;;;;;;;9.95;2.25;;;10.30;99.90;;;;;;5055338;28;20037;-63
2023/04/02 11:35:08;;;;;;;10.55;2.50;;;10.20;99.90;;;;;;5055369;28;20045;-63
2023/04/02 11:37:34;;;;;;;9.05;2.10;;;10.30;99.90;;;;;;5055342;28;20112;-64
2023/04/02 11:40:04;;;;;;;10.32;2.28;;;10.40;99.90;;;;;;5055517;28;20140;-64
2023/04/02 11:42:31;;;;;;;11.30;2.70;;;10.30;99.90;;;;;;5054367;28;20136;-63
2023/04/02 11:44:58;;;;;;;8.70;2.47;;;10.20;99.90;;;;;;5055108;28;20095;-64
2023/04/02 11:47:25;;;;;;;8.75;2.03;;;10.20;99.90;;;;;;5055717;28;20039;-65
2023/04/02 11:49:52;;;;;;;6.97;2.38;;;10.30;99.90;;;;;;5054990;28;20508;-63
2023/04/02 11:52:19;;;;;;;11.20;3.03;;;10.20;99.90;;;;;;5055350;28;20116;-63
2023/04/02 11:54:46;;;;;;;8.10;2.40;;;10.10;99.90;;;;;;5055175;28;20069;-64
2023/04/02 11:57:13;;;;;;;8.63;2.15;;;10.00;99.90;;;;;;5055014;28;20456;-62
2023/04/02 11:59:39;;;;;;;9.25;2.40;;;10.00;99.90;;;;;;5055345;28;20091;-64
2023/04/02 12:02:06;;;;;;;8.07;2.15;;;10.10;99.90;;;;;;5055405;28;20041;-65
2023/04/02 12:04:33;;;;;;;6.68;1.88;;;10.20;99.90;;;;;;5055021;28;20086;-63
2023/04/02 12:07:00;;;;;;;6.35;1.92;;;10.30;99.90;;;;;;5054918;28;20037;-62
2023/04/02 12:09:27;;;;;;;6.55;1.95;;;10.40;99.90;;;;;;5054895;28;20431;-62
2023/04/02 12:11:54;;;;;;;14.20;2.50;;;10.40;99.90;;;;;;5054886;28;20032;-63
2023/04/02 12:14:21;;;;;;;9.27;2.13;;;10.50;99.90;;;;;;5054460;28;20052;-63
2023/04/02 12:16:47;;;;;;;10.93;2.13;;;10.40;99.90;;;;;;5054979;28;20048;-64
2023/04/02 12:19:14;;;;;;;7.65;1.90;;;10.50;99.90;;;;;;5055015;28;20040;-63
2023/04/02 12:21:42;;;;;;;8.43;1.90;;;10.40;99.90;;;;;;5054722;28;20048;-63
2023/04/02 12:24:09;;;;;;;8.15;2.05;;;10.30;99.90;;;;;;5054400;28;20774;-64
2023/04/02 12:26:36;;;;;;;8.25;2.42;;;10.30;99.90;;;;;;5054594;28;20480;-62
2023/04/02 12:29:03;;;;;;;8.15;2.10;;;10.40;99.90;;;;;;5054829;28;20037;-63
2023/04/02 12:31:32;;;;;;;9.95;2.40;;;10.60;99.90;;;;;;5054406;28;20051;-64
2023/04/02 12:33:59;;;;;;;11.48;2.10;;;10.70;99.90;;;;;;5054326;28;20045;-64
2023/04/02 12:36:26;;;;;;;8.82;2.10;;;10.70;99.90;;;;;;5054429;28;20045;-63
2023/04/02 12:38:53;;;;;;;6.82;2.17;;;10.60;99.90;;;;;;5054274;28;20033;-62
2023/04/02 12:41:20;;;;;;;9.70;2.42;;;10.40;99.90;;;;;;5054897;28;20345;-64
2023/04/02 12:43:47;;;;;;;7.70;2.15;;;10.30;99.90;;;;;;5053968;28;20041;-62
2023/04/02 12:46:13;;;;;;;10.30;2.20;;;10.30;99.90;;;;;;5054683;28;20055;-63
2023/04/02 12:48:40;;;;;;;7.70;2.42;;;10.50;99.90;;;;;;5053967;28;20452;-63
2023/04/02 12:51:07;;;;;;;8.48;2.40;;;10.70;99.90;;;;;;5054461;28;20435;-63
2023/04/02 12:53:34;;;;;;;12.00;1.90;;;10.80;99.90;;;;;;5054395;28;20069;-64